Flight Track Log - Related Links

Times and Time Zones

All times are in EDT time to prevent confusion due to time zone crossing. See the KAP29 flight status page for this flight to view local times or setup timezone preferences in your user account.

Time Position Orientation Groundspeed Altitude Reporting Facility
EDT Latitude Longitude Course Direction KTS MPH feet Rate Location/Type
Thu 03:58:35 PM 44.4972 -74.1078 32° Northeast 154 177 9,000  Level Boston Center
Thu 03:59:35 PM 44.5392 -74.0856 21° North 154 177 9,000  Level Boston Center
Thu 04:00:35 PM 44.5811 -74.0664 18° North 154 177 9,000 -1,950 Level Boston Center
Thu 04:01:35 PM 44.4514 -74.1006 191° South 154 177 5,100 -1,227 Descending Boston Center
Thu 04:02:47 PM 44.4458 -74.0597 101° East 111 128 6,300 1,136 Climbing Boston Center
Thu 04:03:47 PM 44.4233 -74.0183 127° Southeast 97 112 7,600 1,050 Climbing Boston Center
Thu 04:04:47 PM 44.4011 -73.9772 127° Southeast 115 132 8,400 600 Climbing Boston Center
Thu 04:05:47 PM 44.3767 -73.9358 130° Southeast 129 148 8,800 350 Climbing Boston Center
Thu 04:06:47 PM 44.3542 -73.8889 124° Southeast 141 162 9,100 150 Climbing Boston Center
Thu 04:07:47 PM 44.3258 -73.8389 128° Southeast 146 168 9,100  Level Boston Center
Thu 04:08:47 PM 44.3264 -73.7778 89° East 153 176 9,100  Level Boston Center
Thu 04:09:59 PM 44.3500 -73.7203 60° Northeast 154 177 9,100  Level Boston Center
Thu 04:10:59 PM 44.3675 -73.6364 74° East 171 197 9,100 -50 Level Boston Center
Thu 04:11:59 PM 44.3453 -73.5867 122° Southeast 134 154 9,000 -50 Descending Boston Center
Thu 04:12:59 PM 44.3164 -73.5425 132° Southeast 146 168 9,000 50 Level Boston Center
Thu 04:13:59 PM 44.2919 -73.4928 124° Southeast 151 174 9,100 50 Climbing Boston Center
Thu 04:14:59 PM 44.2631 -73.4489 133° Southeast 156 180 9,100  Level Boston Center
Thu 04:15:59 PM 44.2364 -73.3964 125° Southeast 161 185 9,100  Level Boston Center
Thu 04:16:59 PM 44.2139 -73.3494 124° Southeast 161 185 9,100 -29 Level Boston Center
Thu 04:19:23 PM 44.1525 -73.2242 124° Southeast 168 193 9,000 -29 Descending Boston Center
Thu 04:20:23 PM 44.1256 -73.1747 127° Southeast 168 193 9,000 50 Level Boston Center
Thu 04:21:23 PM 44.0947 -73.1339 136° Southeast 158 182 9,100 50 Climbing Boston Center
Thu 04:22:23 PM 44.0678 -73.0903 131° Southeast 152 175 9,100  Level Boston Center
Thu 04:23:35 PM 44.0389 -73.0378 127° Southeast 152 175 9,100  Level Boston Center
Thu 04:24:35 PM 44.0081 -72.9828 128° Southeast 164 189 9,100 -50 Level Boston Center
Thu 04:25:35 PM 43.9872 -72.9306 119° Southeast 164 189 9,000  Descending Boston Center
Thu 04:26:35 PM 43.9625 -72.8814 125° Southeast 158 182 9,100 50 Climbing Boston Center
Thu 04:27:35 PM 43.9356 -72.8322 127° Southeast 152 175 9,100  Level Boston Center
Thu 04:28:35 PM 43.9067 -72.7858 131° Southeast 158 182 9,100  Level Boston Center
Thu 04:29:35 PM 43.8775 -72.7281 125° Southeast 158 182 9,100  Level Boston Center
Thu 04:30:35 PM 43.8528 -72.6761 123° Southeast 163 188 9,100  Level Boston Center
Thu 04:31:35 PM 43.8278 -72.6272 125° Southeast 163 188 9,100  Level Boston Center
Thu 04:32:35 PM 43.8008 -72.5781 127° Southeast 163 188 9,100 -150 Level Boston Center
Thu 04:33:35 PM 43.7736 -72.5319 129° Southeast 158 182 8,800 -350 Descending Boston Center
Thu 04:34:35 PM 43.7425 -72.4831 131° Southeast 158 182 8,400 -350 Descending Boston Center
Thu 04:35:35 PM 43.7133 -72.4314 128° Southeast 164 189 8,100 -350 Descending Boston Center
Thu 04:36:35 PM 43.6842 -72.3828 130° Southeast 164 189 7,700 -350 Descending Boston Center
Thu 04:37:35 PM 43.6508 -72.3311 132° Southeast 164 189 7,400 -300 Descending Boston Center
Thu 04:38:35 PM 43.6236 -72.2825 128° Southeast 164 189 7,100 -150 Descending Boston Center
Thu 04:39:35 PM 43.5964 -72.2336 128° Southeast 158 182 7,100  Level Boston Center
Thu 04:40:35 PM 43.5692 -72.1850 128° Southeast 158 182 7,100  Level Boston Center
Thu 04:41:35 PM 43.5442 -72.1394 127° Southeast 158 182 7,100  Level Boston Center
Thu 04:42:35 PM 43.5189 -72.0936 127° Southeast 158 182 7,100  Level Boston Center
Thu 04:43:35 PM 43.4939 -72.0453 125° Southeast 158 182 7,100  Level Boston Center
Thu 04:44:35 PM 43.4708 -72.0053 128° Southeast 158 182 7,100  Level Boston Center
Thu 04:45:35 PM 43.4436 -71.9625 131° Southeast 158 182 7,100  Level Boston Center
Thu 04:46:35 PM 43.4161 -71.9169 130° Southeast 158 182 7,100  Level Boston Center
Thu 04:47:35 PM 43.3889 -71.8744 131° Southeast 158 182 7,100  Level Boston Center
Thu 04:48:35 PM 43.3553 -71.8319 137° Southeast 146 168 7,100  Level Boston Center
Thu 04:49:35 PM 43.3281 -71.7950 135° Southeast 146 168 7,100  Level Boston Center
Thu 04:50:35 PM 43.2925 -71.7556 141° Southeast 146 168 7,100  Level Boston Center
Thu 04:51:35 PM 43.2650 -71.7217 138° Southeast 146 168 7,100  Level Boston Center
Thu 04:52:35 PM 43.2336 -71.6736 132° Southeast 146 168 7,100  Level Boston Center
Thu 04:54:17 PM 43.1833 -71.6000 133° Southeast 152 175 7,100  Level KA90
Thu 04:56:16 PM 43.1167 -71.5333 144° Southeast 156 180 7,100  Level KA90
Thu 04:57:22 PM 43.0833 -71.5000 144° Southeast 155 178 7,100  Level KA90
Thu 04:58:17 PM 43.0500 -71.4667 144° Southeast 154 177 7,100 -106 Level KA90
Thu 04:59:15 PM 43.0167 -71.4167 132° Southeast 161 185 6,900 -290 Descending KA90
Thu 05:00:21 PM 42.9667 -71.3833 154° Southeast 169 194 6,500 -372 Descending KA90
Thu 05:01:24 PM 42.9333 -71.3333 132° Southeast 169 194 6,100 -248 Descending KA90
Thu 05:02:22 PM 42.9000 -71.3000 144° Southeast 165 190 6,000 -54 Descending KA90
Thu 05:03:16 PM 42.8667 -71.2500 132° Southeast 157 181 6,000  Level KA90
Thu 05:04:17 PM 42.8333 -71.2167 144° Southeast 154 177 6,000  Level KA90
Thu 05:05:17 PM 42.8000 -71.1833 144° Southeast 154 177 6,000  Level KA90
Thu 05:06:16 PM 42.7667 -71.1667 160° South 154 177 6,000  Level KA90
Thu 05:07:24 PM 42.7167 -71.1500 166° South 154 177 6,000 -95 Level KA90
Thu 05:08:22 PM 42.6833 -71.1333 160° South 156 180 5,800 -359 Descending KA90
Thu 05:09:21 PM 42.6333 -71.1167 166° South 166 191 5,300 -421 Descending KA90
Thu 05:10:16 PM 42.5833 -71.1000 166° South 168 193 5,000 -162 Descending KA90
Thu 05:11:12 PM 42.5500 -71.1000 180° South 157 181 5,000  Level KA90
Thu 05:12:17 PM 42.5000 -71.1000 180° South 154 177 5,000  Level KA90
Thu 05:13:11 PM 42.4667 -71.1000 180° South 151 174 5,000 52 Level KA90
Thu 05:14:12 PM 42.4333 -71.1167 200° South 152 175 5,100 -47 Climbing KA90
Thu 05:15:18 PM 42.3833 -71.1500 206° Southwest 154 177 4,900 -381 Descending KA90
Thu 05:16:18 PM 42.3500 -71.1667 200° South 172 198 4,300 -626 Descending KA90
Thu 05:17:13 PM 42.3000 -71.1833 194° South 171 197 3,700 -637 Descending KA90
Thu 05:18:11 PM 42.2667 -71.1833 180° South 166 191 3,100 -353 Descending KA90
Thu 05:19:12 PM 42.2500 -71.1167 109° East 158 182 3,000 -347 Descending KA90
Thu 05:20:12 PM 42.2833 -71.0833 36° Northeast 172 198 2,400 -942 Descending KA90
Thu 05:21:13 PM 42.3333 -71.0500 26° Northeast 171 197 1,100 -1,279 Descending KA90
Thu 05:23:00 PM 42.3500 -71.0000 90° East  Level FlightAware Approximate
Thu 05:30:00 PM 42.3630 -71.0064 90° East  Level Estimated

Login

Don't have an account? Register now (free) for customized features, flight alerts, and more!